Terminal Aerodrome Forecast
Issued by NWS Central Illinois

Home | Current Version | Previous Version | Text Only | Print | Product List | Glossary On
Versions: 1 2 3 4 5 6 7 8 9 10 11 12 13 14 15 16
091
FTUS43 KILX 041153
TAFPIA
TAF
KPIA 041153Z 0412/0512 12005KT 5SM -SN OVC025
     FM041300 13007KT 1SM -SN BR OVC008
     FM041800 16006KT 1SM -SN BR OVC004
      TEMPO 0419/0421 1/2SM -SN FG
     FM042200 22005KT 4SM BR VCSH OVC006
     FM050100 24005KT P6SM OVC012
     FM050500 23004KT 4SM BR SKC=

USA.gov is the U.S. government's official web portal to all federal, state and local government web resources and services.